createdAt,value
2022-08-31T00:00:40.564Z,98978.56
2022-08-31T00:03:26.682Z,98975.91
2022-08-31T00:05:59.974Z,98983.34
2022-08-31T00:08:29.650Z,98985.03
2022-08-31T00:10:58.352Z,98979.63
2022-08-31T00:13:27.854Z,98984.56
2022-08-31T00:15:58.534Z,98989.03
2022-08-31T00:18:27.068Z,98987.72
2022-08-31T00:20:56.357Z,98989.63
2022-08-31T00:23:26.299Z,98991.06
2022-08-31T00:25:54.869Z,98983.09
2022-08-31T00:28:23.536Z,98989.19
2022-08-31T00:30:52.068Z,98989.50
2022-08-31T00:33:20.629Z,98977.97
2022-08-31T00:35:49.533Z,99002.25
2022-08-31T00:38:18.513Z,99003.44
2022-08-31T00:40:49.209Z,98989.72
2022-08-31T00:43:41.112Z,98991.44
2022-08-31T00:46:11.237Z,98993.94
2022-08-31T00:48:46.092Z,98993.63
2022-08-31T00:51:18.574Z,98991.69
2022-08-31T00:53:48.852Z,99000.75
2022-08-31T00:56:21.962Z,98988.50
2022-08-31T00:58:54.446Z,98992.06
2022-08-31T01:01:24.418Z,98990.56
2022-08-31T01:03:53.127Z,98994.44
2022-08-31T01:06:22.129Z,98988.09
2022-08-31T01:08:52.088Z,98984.81
2022-08-31T01:11:22.673Z,98992.50
2022-08-31T01:13:51.334Z,98984.34
2022-08-31T01:16:24.118Z,98984.13
2022-08-31T01:18:54.391Z,98978.94
2022-08-31T01:21:28.087Z,98991.00
2022-08-31T01:24:01.740Z,98977.59
2022-08-31T01:26:33.149Z,98982.31
2022-08-31T01:29:06.229Z,98987.06
2022-08-31T01:31:38.567Z,98981.59
2022-08-31T01:34:08.097Z,98982.41
2022-08-31T01:36:38.718Z,98985.16
2022-08-31T01:39:09.716Z,98984.41
2022-08-31T01:41:41.534Z,98985.75
2022-08-31T01:44:10.850Z,98989.16
2022-08-31T01:46:39.530Z,98979.31
2022-08-31T01:49:08.322Z,98976.94
2022-08-31T01:51:37.199Z,98963.81
2022-08-31T01:54:06.504Z,98963.81
2022-08-31T01:56:38.729Z,98962.59
2022-08-31T01:59:12.688Z,98972.22
2022-08-31T02:02:00.288Z,98964.03
2022-08-31T02:04:30.627Z,98960.25
2022-08-31T02:07:17.737Z,98965.44
2022-08-31T02:09:47.192Z,98971.78
2022-08-31T02:12:17.268Z,98964.41
2022-08-31T02:14:45.752Z,98967.44
2022-08-31T02:17:14.481Z,98965.06
2022-08-31T02:19:43.095Z,98965.63
2022-08-31T02:22:12.889Z,98970.59
2022-08-31T02:24:41.519Z,98971.41
2022-08-31T02:27:17.582Z,98963.19
2022-08-31T02:29:53.377Z,98961.88
2022-08-31T02:32:25.238Z,98971.44
2022-08-31T02:34:53.841Z,98964.91
2022-08-31T02:37:22.364Z,98957.28
2022-08-31T02:39:51.234Z,98954.06
2022-08-31T02:42:23.112Z,98950.50
2022-08-31T02:44:53.568Z,98948.06
2022-08-31T02:47:22.232Z,98937.16
2022-08-31T02:50:09.480Z,98940.16
2022-08-31T02:52:38.500Z,98952.53
2022-08-31T02:55:11.802Z,98936.91
2022-08-31T02:57:40.680Z,98941.31
2022-08-31T03:00:15.393Z,98939.69
2022-08-31T03:02:44.141Z,98953.88
2022-08-31T03:05:13.066Z,98948.19
2022-08-31T03:07:42.272Z,98946.03
2022-08-31T03:10:14.930Z,98948.19
2022-08-31T03:12:45.065Z,98942.72
2022-08-31T03:15:16.609Z,98945.47
2022-08-31T03:17:48.255Z,98947.09
2022-08-31T03:20:19.571Z,98945.16
2022-08-31T03:22:48.360Z,98942.69
2022-08-31T03:25:19.228Z,98954.19
2022-08-31T03:27:47.878Z,98947.31
2022-08-31T03:30:21.774Z,98956.13
2022-08-31T03:33:09.978Z,98951.50
2022-08-31T03:35:43.748Z,98944.94
2022-08-31T03:38:14.134Z,98957.00
2022-08-31T03:40:45.314Z,98946.88
2022-08-31T03:43:14.715Z,98944.69
2022-08-31T03:45:45.804Z,98940.31
2022-08-31T03:48:14.751Z,98947.97
2022-08-31T03:50:46.194Z,98946.09
2022-08-31T03:53:23.603Z,98933.47
2022-08-31T03:56:01.182Z,98936.22
2022-08-31T03:58:33.447Z,98933.22
2022-08-31T04:01:04.135Z,98938.66
2022-08-31T04:03:52.635Z,98932.09
2022-08-31T04:06:41.268Z,98938.13
2022-08-31T04:09:28.199Z,98927.19
2022-08-31T04:12:16.202Z,98931.56
2022-08-31T04:15:03.612Z,98932.66
2022-08-31T04:17:59.501Z,98928.00
2022-08-31T04:20:45.161Z,98930.50
2022-08-31T04:23:13.985Z,98926.94
2022-08-31T04:25:52.138Z,98924.47
2022-08-31T04:28:20.767Z,98931.31
2022-08-31T04:30:52.831Z,98922.84
2022-08-31T04:33:23.636Z,98919.03
2022-08-31T04:35:53.472Z,98925.84
2022-08-31T04:38:21.992Z,98937.63
2022-08-31T04:40:52.378Z,98940.34
2022-08-31T04:43:21.249Z,98934.34
2022-08-31T04:45:52.852Z,98932.97
2022-08-31T04:48:23.174Z,98932.66
2022-08-31T04:50:51.912Z,98922.00
2022-08-31T04:53:20.615Z,98937.31
2022-08-31T04:55:49.237Z,98944.72
2022-08-31T04:58:20.598Z,98943.06
2022-08-31T05:00:49.136Z,98939.78
2022-08-31T05:03:35.923Z,98938.13
2022-08-31T05:06:05.930Z,98938.91
2022-08-31T05:08:35.213Z,98945.47
2022-08-31T05:11:11.256Z,98941.34
2022-08-31T05:13:39.965Z,98940.56
2022-08-31T05:16:10.797Z,98941.13
2022-08-31T05:18:42.533Z,98944.94
2022-08-31T05:21:11.773Z,98947.16
2022-08-31T05:23:40.905Z,98947.44
2022-08-31T05:26:10.172Z,98941.44
2022-08-31T05:28:39.272Z,98941.44
2022-08-31T05:31:08.175Z,98948.50
2022-08-31T05:33:46.890Z,98947.97
2022-08-31T05:36:17.399Z,98945.50
2022-08-31T05:38:46.139Z,98947.94
2022-08-31T05:41:15.624Z,98954.25
2022-08-31T05:43:45.164Z,98948.22
2022-08-31T05:46:16.097Z,98958.38
2022-08-31T05:48:49.479Z,98961.91
2022-08-31T05:51:20.595Z,98960.03
2022-08-31T05:53:50.015Z,98964.97
2022-08-31T05:56:20.996Z,98961.41
2022-08-31T05:58:51.559Z,98964.94
2022-08-31T06:01:22.686Z,98968.53
2022-08-31T06:04:13.379Z,98967.69
2022-08-31T06:06:43.433Z,98967.69
2022-08-31T06:09:14.889Z,98975.66
2022-08-31T06:11:44.914Z,98982.53
2022-08-31T06:14:18.557Z,98984.44
2022-08-31T06:16:48.598Z,98994.00
2022-08-31T06:19:21.716Z,98992.38
2022-08-31T06:21:52.049Z,98997.28
2022-08-31T06:24:28.011Z,98996.19
2022-08-31T06:26:59.433Z,98985.81
2022-08-31T06:29:32.901Z,98993.72
2022-08-31T06:32:08.919Z,98991.81
2022-08-31T06:34:43.642Z,98995.34
2022-08-31T06:37:18.471Z,98992.34
2022-08-31T06:40:07.186Z,98993.69
2022-08-31T06:42:55.951Z,98992.06
2022-08-31T06:45:43.022Z,98995.91
2022-08-31T06:48:40.508Z,98993.97
2022-08-31T06:51:12.437Z,98994.25
2022-08-31T06:53:42.630Z,98994.28
2022-08-31T06:56:36.131Z,99004.13
2022-08-31T06:59:28.442Z,98985.81
2022-08-31T07:01:58.659Z,98995.09
2022-08-31T07:04:36.061Z,98981.97
2022-08-31T07:07:07.914Z,98982.78
2022-08-31T07:09:36.990Z,98988.25
2022-08-31T07:12:06.292Z,98994.25
2022-08-31T07:14:35.910Z,98988.78
2022-08-31T07:17:05.367Z,98981.41
2022-08-31T07:19:35.090Z,98976.19
2022-08-31T07:22:09.426Z,98994.53
2022-08-31T07:24:43.481Z,98990.97
2022-08-31T07:27:16.600Z,98983.28
2022-08-31T07:30:00.609Z,98982.44
2022-08-31T07:32:34.133Z,98991.75
2022-08-31T07:35:03.603Z,98989.28
2022-08-31T07:37:52.258Z,98984.06
2022-08-31T07:40:43.655Z,98984.84
2022-08-31T07:43:15.128Z,98985.91
2022-08-31T07:45:44.156Z,98985.88
2022-08-31T07:48:16.744Z,98987.00
2022-08-31T07:51:03.647Z,98987.81
2022-08-31T07:53:57.831Z,98988.69
2022-08-31T07:56:35.123Z,98989.75
2022-08-31T07:59:17.682Z,98999.88
2022-08-31T08:01:47.848Z,98988.91
2022-08-31T08:04:25.623Z,98992.25
2022-08-31T08:07:26.508Z,98987.28
2022-08-31T08:10:14.580Z,98993.59
2022-08-31T08:12:44.308Z,98998.00
2022-08-31T08:15:33.209Z,98993.91
2022-08-31T08:18:30.557Z,98993.66
2022-08-31T08:21:03.128Z,98994.19
2022-08-31T08:23:31.966Z,99002.38
2022-08-31T08:26:21.648Z,99001.59
2022-08-31T08:29:13.925Z,99001.31
2022-08-31T08:31:46.462Z,98995.34
2022-08-31T08:34:15.201Z,99008.72
2022-08-31T08:36:43.805Z,99002.97
2022-08-31T08:39:13.058Z,99005.72
2022-08-31T08:41:54.380Z,99014.47
2022-08-31T08:44:27.171Z,99020.25
2022-08-31T08:46:58.284Z,99005.97
2022-08-31T08:49:41.582Z,99001.03
2022-08-31T08:52:16.067Z,99002.66
2022-08-31T08:54:48.181Z,98998.81
2022-08-31T08:57:23.729Z,99004.00
2022-08-31T08:59:57.576Z,99014.16
2022-08-31T09:02:32.683Z,98999.63
2022-08-31T09:05:38.183Z,98999.63
2022-08-31T09:08:48.299Z,99009.47
2022-08-31T09:11:24.013Z,99013.84
2022-08-31T09:14:10.089Z,99009.69
2022-08-31T09:16:50.666Z,99005.25
2022-08-31T09:19:21.880Z,99010.44
2022-08-31T09:21:53.136Z,99006.78
2022-08-31T09:24:26.922Z,99006.97
2022-08-31T09:27:19.096Z,99009.34
2022-08-31T09:29:55.448Z,99012.03
2022-08-31T09:32:26.605Z,99020.47
2022-08-31T09:35:01.867Z,99009.00
2022-08-31T09:37:38.305Z,99028.75
2022-08-31T09:40:23.664Z,99024.22
2022-08-31T09:43:04.463Z,99037.41
2022-08-31T09:45:42.038Z,99032.22
2022-08-31T09:48:10.630Z,99037.16
2022-08-31T09:50:45.298Z,99040.47
2022-08-31T09:53:39.565Z,99037.97
2022-08-31T09:56:19.977Z,99026.19
2022-08-31T09:58:51.098Z,99030.81
2022-08-31T10:01:25.928Z,99032.94
2022-08-31T10:04:12.399Z,99027.88
2022-08-31T10:06:49.854Z,99033.19
2022-08-31T10:09:28.727Z,99024.84
2022-08-31T10:11:59.985Z,99028.41
2022-08-31T10:14:36.826Z,99025.63
2022-08-31T10:17:15.322Z,99029.78
2022-08-31T10:19:53.491Z,99033.78
2022-08-31T10:22:28.455Z,99013.75
2022-08-31T10:25:12.278Z,99024.50
2022-08-31T10:27:45.350Z,99034.88
2022-08-31T10:30:29.342Z,99034.88
2022-08-31T10:33:06.658Z,99031.13
2022-08-31T10:35:45.056Z,99032.59
2022-08-31T10:38:24.287Z,99053.34
2022-08-31T10:41:02.622Z,99048.50
2022-08-31T10:43:40.027Z,99034.47
2022-08-31T10:46:08.622Z,99035.47
2022-08-31T10:48:51.062Z,99031.91
2022-08-31T10:51:27.104Z,99054.78
2022-08-31T10:54:29.070Z,99047.72
2022-08-31T10:57:06.666Z,99053.50
2022-08-31T10:59:40.947Z,99058.28
2022-08-31T11:02:39.173Z,99052.19
2022-08-31T11:05:23.075Z,99049.44
2022-08-31T11:08:00.825Z,99036.44
2022-08-31T11:10:42.640Z,99048.81
2022-08-31T11:13:25.663Z,99046.44
2022-08-31T11:16:09.815Z,99053.59
2022-08-31T11:19:19.570Z,99043.56
2022-08-31T11:22:16.633Z,99046.47
2022-08-31T11:25:29.637Z,99050.63
2022-08-31T11:28:07.217Z,99062.56
2022-08-31T11:30:41.851Z,99051.66
2022-08-31T11:33:20.509Z,99049.06
2022-08-31T11:36:10.417Z,99057.75
2022-08-31T11:39:36.256Z,99067.44
2022-08-31T11:42:10.451Z,99052.44
2022-08-31T11:45:07.208Z,99058.44
2022-08-31T11:47:39.017Z,99055.09
2022-08-31T11:50:14.350Z,99054.59
2022-08-31T11:52:48.424Z,99055.47
2022-08-31T11:55:28.802Z,99059.31
2022-08-31T11:58:35.021Z,99050.47
2022-08-31T12:01:09.656Z,99055.34
2022-08-31T12:03:46.296Z,99060.97
2022-08-31T12:06:48.357Z,99060.47
2022-08-31T12:09:32.781Z,99060.31
2022-08-31T12:12:10.305Z,99067.34
2022-08-31T12:14:47.579Z,99082.16
2022-08-31T12:17:24.472Z,99077.28
2022-08-31T12:20:03.138Z,99054.03
2022-08-31T12:23:30.094Z,99086.50
2022-08-31T12:26:32.315Z,99091.50
2022-08-31T12:29:16.442Z,99073.44
2022-08-31T12:31:59.265Z,99085.19
2022-08-31T12:34:30.148Z,99091.00
2022-08-31T12:36:58.612Z,99088.50
2022-08-31T12:39:28.918Z,99088.84
2022-08-31T12:42:01.124Z,99092.16
2022-08-31T12:44:35.085Z,99077.69
2022-08-31T12:47:05.904Z,99097.69
2022-08-31T12:49:54.008Z,99105.94
2022-08-31T12:52:40.007Z,99088.41
2022-08-31T12:55:20.254Z,99100.50
2022-08-31T12:57:55.559Z,99105.97
2022-08-31T13:00:28.243Z,99120.19
2022-08-31T13:03:00.118Z,99121.25
2022-08-31T13:05:31.438Z,99112.28
2022-08-31T13:08:00.690Z,99112.78
2022-08-31T13:10:32.789Z,99111.97
2022-08-31T13:13:04.855Z,99110.31
2022-08-31T13:15:39.922Z,99105.63
2022-08-31T13:18:12.195Z,99108.63
2022-08-31T13:20:43.580Z,99112.44
2022-08-31T13:23:15.335Z,99106.72
2022-08-31T13:25:48.427Z,99112.75
2022-08-31T13:28:26.300Z,99106.19
2022-08-31T13:31:03.568Z,99105.66
2022-08-31T13:33:35.133Z,99121.81
2022-08-31T13:36:09.750Z,99104.34
2022-08-31T13:38:53.352Z,99105.47
2022-08-31T13:41:27.521Z,99122.16
2022-08-31T13:44:02.753Z,99114.47
2022-08-31T13:46:44.348Z,99116.13
2022-08-31T13:49:33.765Z,99121.56
2022-08-31T13:52:03.157Z,99114.19
2022-08-31T13:54:33.500Z,99133.09
2022-08-31T13:57:13.523Z,99118.31
2022-08-31T13:59:42.248Z,99126.84
2022-08-31T14:02:36.971Z,99115.03
2022-08-31T14:05:13.048Z,99127.91
2022-08-31T14:07:56.856Z,99118.09
2022-08-31T14:10:27.539Z,99131.22
2022-08-31T14:12:59.275Z,99129.88
2022-08-31T14:15:41.331Z,99123.31
2022-08-31T14:18:26.904Z,99131.81
2022-08-31T14:21:25.413Z,99146.31
2022-08-31T14:24:00.674Z,99151.22
2022-08-31T14:26:31.688Z,99149.59
2022-08-31T14:29:03.734Z,99158.63
2022-08-31T14:31:37.281Z,99159.19
2022-08-31T14:34:22.539Z,99166.59
2022-08-31T14:36:54.639Z,99164.63
2022-08-31T14:39:26.832Z,99170.97
2022-08-31T14:41:58.579Z,99172.56
2022-08-31T14:44:31.269Z,99169.56
2022-08-31T14:47:00.064Z,99172.56
2022-08-31T14:49:35.789Z,99168.72
2022-08-31T14:52:06.906Z,99173.91
2022-08-31T14:54:37.709Z,99167.66
2022-08-31T14:57:12.550Z,99187.34
2022-08-31T14:59:43.582Z,99176.69
2022-08-31T15:02:16.506Z,99174.47
2022-08-31T15:04:46.573Z,99172.28
2022-08-31T15:07:16.016Z,99185.66
2022-08-31T15:09:46.910Z,99196.03
2022-08-31T15:12:16.262Z,99191.13
2022-08-31T15:14:47.382Z,99196.59
2022-08-31T15:17:19.870Z,99214.06
2022-08-31T15:19:56.172Z,99207.53
2022-08-31T15:22:26.861Z,99213.28
2022-08-31T15:24:56.567Z,99196.56
2022-08-31T15:27:29.040Z,99214.31
2022-08-31T15:30:07.883Z,99208.25
2022-08-31T15:32:45.482Z,99203.03
2022-08-31T15:35:19.007Z,99201.59
2022-08-31T15:37:53.256Z,99211.47
2022-08-31T15:40:22.360Z,99216.03
2022-08-31T15:42:51.138Z,99219.84
2022-08-31T15:45:20.549Z,99214.09
2022-08-31T15:48:06.416Z,99213.16
2022-08-31T15:50:36.779Z,99216.16
2022-08-31T15:53:10.013Z,99224.06
2022-08-31T15:55:41.131Z,99220.22
2022-08-31T15:58:10.972Z,99217.19
2022-08-31T16:00:42.311Z,99237.44
2022-08-31T16:03:11.522Z,99241.22
2022-08-31T16:05:43.592Z,99242.16
2022-08-31T16:08:13.357Z,99233.03
2022-08-31T16:10:44.768Z,99237.75
2022-08-31T16:13:13.746Z,99234.22
2022-08-31T16:15:49.062Z,99234.53
2022-08-31T16:18:19.384Z,99253.06
2022-08-31T16:20:51.728Z,99261.84
2022-08-31T16:23:21.216Z,99254.03
2022-08-31T16:25:49.848Z,99261.72
2022-08-31T16:28:20.664Z,99264.22
2022-08-31T16:30:51.058Z,99266.41
2022-08-31T16:33:20.313Z,99271.88
2022-08-31T16:35:50.743Z,99253.47
2022-08-31T16:38:19.513Z,99266.38
2022-08-31T16:40:48.173Z,99262.53
2022-08-31T16:43:16.739Z,99264.16
2022-08-31T16:45:45.262Z,99258.19
2022-08-31T16:48:31.351Z,99259.81
2022-08-31T16:51:02.731Z,99274.25
2022-08-31T16:53:32.328Z,99266.38
2022-08-31T16:56:03.489Z,99284.34
2022-08-31T16:58:52.145Z,99286.31
2022-08-31T17:01:24.098Z,99288.38
2022-08-31T17:03:55.989Z,99264.44
2022-08-31T17:06:27.891Z,99291.09
2022-08-31T17:08:57.974Z,99285.59
2022-08-31T17:11:32.291Z,99286.81
2022-08-31T17:14:03.484Z,99294.41
2022-08-31T17:16:34.871Z,99286.97
2022-08-31T17:19:06.614Z,99287.50
2022-08-31T17:21:49.587Z,99289.84
2022-08-31T17:24:21.795Z,99295.88
2022-08-31T17:26:52.035Z,99286.44
2022-08-31T17:29:23.836Z,99295.66
2022-08-31T17:31:53.530Z,99298.81
2022-08-31T17:34:28.423Z,99288.44
2022-08-31T17:37:00.562Z,99281.38
2022-08-31T17:39:30.288Z,99286.22
2022-08-31T17:41:59.324Z,99271.75
2022-08-31T17:44:31.065Z,99284.81
2022-08-31T17:47:02.104Z,99292.94
2022-08-31T17:49:37.707Z,99285.38
2022-08-31T17:52:09.366Z,99280.63
2022-08-31T17:54:42.161Z,99297.28
2022-08-31T17:57:13.897Z,99290.88
2022-08-31T17:59:44.516Z,99292.53
2022-08-31T18:02:16.766Z,99291.66
2022-08-31T18:04:45.591Z,99298.75
2022-08-31T18:07:15.925Z,99289.09
2022-08-31T18:09:47.042Z,99295.03
2022-08-31T18:12:17.078Z,99281.25
2022-08-31T18:14:46.080Z,99290.84
2022-08-31T18:17:16.467Z,99279.00
2022-08-31T18:19:45.588Z,99284.63
2022-08-31T18:22:15.628Z,99284.44
2022-08-31T18:24:45.007Z,99284.69
2022-08-31T18:27:15.728Z,99283.53
2022-08-31T18:29:45.323Z,99284.97
2022-08-31T18:32:14.583Z,99270.38
2022-08-31T18:34:47.557Z,99293.31
2022-08-31T18:37:26.036Z,99286.13
2022-08-31T18:40:12.271Z,99287.06
2022-08-31T18:42:58.378Z,99293.97
2022-08-31T18:45:27.531Z,99287.38
2022-08-31T18:50:47.091Z,99288.53
2022-08-31T18:53:27.557Z,99293.81
2022-08-31T18:56:00.844Z,99282.53
2022-08-31T18:58:30.112Z,99289.13
2022-08-31T19:00:59.486Z,99282.41
2022-08-31T19:03:29.244Z,99270.88
2022-08-31T19:05:58.548Z,99276.19
2022-08-31T19:08:28.706Z,99275.00
2022-08-31T19:10:58.280Z,99272.47
2022-08-31T20:08:30.914Z,99272.13
2022-08-31T20:10:59.488Z,99268.03
2022-08-31T20:13:28.582Z,99271.59
2022-08-31T20:15:57.979Z,99265.72
2022-08-31T20:18:28.269Z,99268.72
2022-08-31T20:20:56.850Z,99276.53
2022-08-31T20:23:25.623Z,99282.94
2022-08-31T20:25:55.428Z,99274.94
2022-08-31T20:28:27.006Z,99281.00
2022-08-31T20:31:00.051Z,99261.50
2022-08-31T20:33:29.081Z,99270.28
2022-08-31T20:35:57.596Z,99275.00
2022-08-31T20:38:29.009Z,99267.56
2022-08-31T20:40:59.119Z,99256.34
2022-08-31T20:43:32.565Z,99272.16
2022-08-31T20:46:03.165Z,99263.13
2022-08-31T20:48:49.416Z,99279.78
2022-08-31T20:51:19.069Z,99256.13
2022-08-31T20:53:48.901Z,99270.28
2022-08-31T20:56:24.405Z,99261.09
2022-08-31T20:58:52.888Z,99245.66
2022-08-31T21:01:21.823Z,99253.94
2022-08-31T21:03:50.396Z,99242.53
2022-08-31T21:06:24.144Z,99259.63
2022-08-31T21:08:56.576Z,99261.75
2022-08-31T21:11:26.734Z,99264.22
2022-08-31T21:13:55.675Z,99263.53
2022-08-31T21:16:26.259Z,99243.34
2022-08-31T21:18:55.140Z,99244.28
2022-08-31T21:21:23.680Z,99236.75
2022-08-31T21:23:52.110Z,99228.94
2022-08-31T21:26:24.495Z,99229.09
2022-08-31T21:28:56.693Z,99236.16
2022-08-31T21:31:29.136Z,99216.31
2022-08-31T21:34:00.128Z,99230.63
2022-08-31T21:36:33.075Z,99234.88
2022-08-31T21:39:02.512Z,99233.44
2022-08-31T21:41:31.014Z,99231.34
2022-08-31T21:44:01.143Z,99231.81
2022-08-31T21:46:30.964Z,99238.19
2022-08-31T21:49:00.379Z,99242.06
2022-08-31T21:51:30.988Z,99246.75
2022-08-31T21:54:02.529Z,99240.50
2022-08-31T21:56:33.576Z,99243.22
2022-08-31T21:59:03.990Z,99245.94
2022-08-31T22:01:34.180Z,99243.34
2022-08-31T22:04:04.656Z,99243.13
2022-08-31T22:06:33.244Z,99245.03
2022-08-31T22:09:05.775Z,99225.91
2022-08-31T22:11:40.233Z,99232.28
2022-08-31T22:14:11.477Z,99229.44
2022-08-31T22:16:41.024Z,99234.41
2022-08-31T22:19:13.381Z,99229.94
2022-08-31T22:21:44.262Z,99232.19
2022-08-31T22:24:26.956Z,99233.34
2022-08-31T22:26:58.536Z,99221.41
2022-08-31T22:29:31.491Z,99215.78
2022-08-31T22:32:02.445Z,99216.72
2022-08-31T22:34:31.255Z,99216.72
2022-08-31T22:36:59.732Z,99230.06
2022-08-31T22:39:30.262Z,99230.19
2022-08-31T22:42:01.514Z,99231.47
2022-08-31T22:44:34.560Z,99231.13
2022-08-31T22:47:04.473Z,99228.31
2022-08-31T22:49:33.260Z,99237.03
2022-08-31T22:52:01.797Z,99234.78
2022-08-31T22:54:30.880Z,99228.53
2022-08-31T22:56:59.444Z,99225.94
2022-08-31T22:59:28.371Z,99231.38
2022-08-31T23:02:00.656Z,99222.53
2022-08-31T23:04:30.035Z,99217.81
2022-08-31T23:06:59.316Z,99233.59
2022-08-31T23:09:31.112Z,99231.59
2022-08-31T23:12:01.818Z,99239.25
2022-08-31T23:14:32.157Z,99247.41
2022-08-31T23:17:04.213Z,99241.34
2022-08-31T23:19:37.099Z,99243.91
2022-08-31T23:22:09.487Z,99244.53
2022-08-31T23:24:40.844Z,99250.59
2022-08-31T23:27:10.639Z,99239.59
2022-08-31T23:29:41.196Z,99256.06
2022-08-31T23:32:13.334Z,99250.56
2022-08-31T23:34:42.858Z,99258.47
2022-08-31T23:37:12.153Z,99260.47
2022-08-31T23:39:44.696Z,99262.94
2022-08-31T23:42:14.259Z,99262.19
2022-08-31T23:44:44.440Z,99264.91
2022-08-31T23:47:19.092Z,99266.19
2022-08-31T23:49:50.779Z,99267.47
2022-08-31T23:52:37.875Z,99263.72
2022-08-31T23:55:07.131Z,99256.16
2022-08-31T23:57:37.188Z,99257.09
